sensor_id;sensor_type;location;lat;lon;timestamp;P1;durP1;ratioP1;P2;durP2;ratioP2
6842;SDS011;3460;52.028;8.916;2022-07-21T00:01:24;2.83;;;2.00;;
6842;SDS011;3460;52.028;8.916;2022-07-21T00:03:51;4.53;;;1.80;;
6842;SDS011;3460;52.028;8.916;2022-07-21T00:06:17;2.73;;;1.80;;
6842;SDS011;3460;52.028;8.916;2022-07-21T00:08:44;4.60;;;2.00;;
6842;SDS011;3460;52.028;8.916;2022-07-21T00:11:12;3.67;;;2.10;;
6842;SDS011;3460;52.028;8.916;2022-07-21T00:13:38;6.10;;;2.03;;
6842;SDS011;3460;52.028;8.916;2022-07-21T00:16:05;3.17;;;1.80;;
6842;SDS011;3460;52.028;8.916;2022-07-21T00:18:32;2.93;;;1.60;;
6842;SDS011;3460;52.028;8.916;2022-07-21T00:20:59;2.40;;;1.57;;
6842;SDS011;3460;52.028;8.916;2022-07-21T00:23:26;3.43;;;1.50;;
6842;SDS011;3460;52.028;8.916;2022-07-21T00:25:53;2.87;;;1.60;;
6842;SDS011;3460;52.028;8.916;2022-07-21T00:28:21;4.00;;;2.00;;
6842;SDS011;3460;52.028;8.916;2022-07-21T00:30:48;3.00;;;1.87;;
6842;SDS011;3460;52.028;8.916;2022-07-21T00:33:15;2.53;;;2.00;;
6842;SDS011;3460;52.028;8.916;2022-07-21T00:35:41;2.07;;;1.73;;
6842;SDS011;3460;52.028;8.916;2022-07-21T00:38:08;2.63;;;1.67;;
6842;SDS011;3460;52.028;8.916;2022-07-21T00:40:34;3.20;;;1.80;;
6842;SDS011;3460;52.028;8.916;2022-07-21T00:43:01;3.27;;;1.70;;
6842;SDS011;3460;52.028;8.916;2022-07-21T00:45:29;2.90;;;2.17;;
6842;SDS011;3460;52.028;8.916;2022-07-21T00:47:56;2.97;;;1.93;;
6842;SDS011;3460;52.028;8.916;2022-07-21T00:50:23;3.60;;;1.90;;
6842;SDS011;3460;52.028;8.916;2022-07-21T00:52:49;4.03;;;1.88;;
6842;SDS011;3460;52.028;8.916;2022-07-21T00:55:17;3.90;;;1.88;;
6842;SDS011;3460;52.028;8.916;2022-07-21T00:57:45;4.53;;;1.97;;
6842;SDS011;3460;52.028;8.916;2022-07-21T01:00:14;4.32;;;1.92;;
6842;SDS011;3460;52.028;8.916;2022-07-21T01:16:12;5.40;;;2.40;;
6842;SDS011;3460;52.028;8.916;2022-07-21T01:18:39;3.63;;;2.30;;
6842;SDS011;3460;52.028;8.916;2022-07-21T01:21:13;6.45;;;2.67;;
6842;SDS011;3460;52.028;8.916;2022-07-21T01:23:52;5.47;;;2.60;;
6842;SDS011;3460;52.028;8.916;2022-07-21T01:26:19;5.70;;;2.90;;
6842;SDS011;3460;52.028;8.916;2022-07-21T01:28:46;3.47;;;2.53;;
6842;SDS011;3460;52.028;8.916;2022-07-21T01:31:12;5.03;;;2.78;;
6842;SDS011;3460;52.028;8.916;2022-07-21T01:33:40;4.82;;;2.60;;
6842;SDS011;3460;52.028;8.916;2022-07-21T01:36:07;4.70;;;3.03;;
6842;SDS011;3460;52.028;8.916;2022-07-21T01:38:35;6.20;;;3.27;;
6842;SDS011;3460;52.028;8.916;2022-07-21T01:41:20;5.77;;;3.13;;
6842;SDS011;3460;52.028;8.916;2022-07-21T01:43:55;4.67;;;2.70;;
6842;SDS011;3460;52.028;8.916;2022-07-21T01:46:23;4.17;;;2.83;;
6842;SDS011;3460;52.028;8.916;2022-07-21T01:48:50;5.17;;;2.97;;
6842;SDS011;3460;52.028;8.916;2022-07-21T01:51:17;5.53;;;3.37;;
6842;SDS011;3460;52.028;8.916;2022-07-21T01:53:44;4.57;;;3.33;;
6842;SDS011;3460;52.028;8.916;2022-07-21T01:56:11;4.50;;;3.37;;
6842;SDS011;3460;52.028;8.916;2022-07-21T01:58:38;5.37;;;3.00;;
6842;SDS011;3460;52.028;8.916;2022-07-21T02:01:05;5.27;;;3.40;;
6842;SDS011;3460;52.028;8.916;2022-07-21T02:03:32;6.83;;;3.60;;
6842;SDS011;3460;52.028;8.916;2022-07-21T02:06:02;4.57;;;3.40;;
6842;SDS011;3460;52.028;8.916;2022-07-21T02:08:30;5.60;;;3.67;;
6842;SDS011;3460;52.028;8.916;2022-07-21T02:10:58;4.97;;;3.67;;
6842;SDS011;3460;52.028;8.916;2022-07-21T02:13:25;6.87;;;3.63;;
6842;SDS011;3460;52.028;8.916;2022-07-21T02:15:52;6.33;;;3.07;;
6842;SDS011;3460;52.028;8.916;2022-07-21T02:18:20;5.27;;;3.70;;
6842;SDS011;3460;52.028;8.916;2022-07-21T02:20:46;7.27;;;4.17;;
6842;SDS011;3460;52.028;8.916;2022-07-21T02:23:13;5.60;;;4.23;;
6842;SDS011;3460;52.028;8.916;2022-07-21T02:25:40;4.33;;;3.70;;
6842;SDS011;3460;52.028;8.916;2022-07-21T02:28:08;4.53;;;3.93;;
6842;SDS011;3460;52.028;8.916;2022-07-21T02:30:35;5.33;;;4.07;;
6842;SDS011;3460;52.028;8.916;2022-07-21T02:33:02;4.83;;;4.17;;
6842;SDS011;3460;52.028;8.916;2022-07-21T02:35:29;6.87;;;4.60;;
6842;SDS011;3460;52.028;8.916;2022-07-21T02:37:56;6.30;;;4.40;;
6842;SDS011;3460;52.028;8.916;2022-07-21T02:40:23;5.37;;;4.30;;
6842;SDS011;3460;52.028;8.916;2022-07-21T02:42:49;8.90;;;4.57;;
6842;SDS011;3460;52.028;8.916;2022-07-21T02:45:17;5.10;;;4.20;;
6842;SDS011;3460;52.028;8.916;2022-07-21T02:47:48;5.40;;;4.33;;
6842;SDS011;3460;52.028;8.916;2022-07-21T02:50:15;7.93;;;4.60;;
6842;SDS011;3460;52.028;8.916;2022-07-21T02:52:42;7.07;;;4.20;;
6842;SDS011;3460;52.028;8.916;2022-07-21T02:55:09;6.33;;;4.83;;
6842;SDS011;3460;52.028;8.916;2022-07-21T02:57:35;6.57;;;4.87;;
6842;SDS011;3460;52.028;8.916;2022-07-21T03:00:03;6.57;;;4.83;;
6842;SDS011;3460;52.028;8.916;2022-07-21T03:02:32;8.03;;;4.57;;
6842;SDS011;3460;52.028;8.916;2022-07-21T03:04:58;7.40;;;5.17;;
6842;SDS011;3460;52.028;8.916;2022-07-21T03:07:25;8.43;;;5.53;;
6842;SDS011;3460;52.028;8.916;2022-07-21T03:09:52;6.10;;;5.50;;
6842;SDS011;3460;52.028;8.916;2022-07-21T03:12:18;6.73;;;5.77;;
6842;SDS011;3460;52.028;8.916;2022-07-21T03:14:45;9.63;;;6.10;;
6842;SDS011;3460;52.028;8.916;2022-07-21T03:17:11;10.00;;;6.00;;
6842;SDS011;3460;52.028;8.916;2022-07-21T03:19:39;7.07;;;6.00;;
6842;SDS011;3460;52.028;8.916;2022-07-21T03:22:06;7.33;;;6.10;;
6842;SDS011;3460;52.028;8.916;2022-07-21T03:24:32;9.63;;;5.97;;
6842;SDS011;3460;52.028;8.916;2022-07-21T03:26:59;6.63;;;5.20;;
6842;SDS011;3460;52.028;8.916;2022-07-21T03:29:26;8.20;;;5.67;;
6842;SDS011;3460;52.028;8.916;2022-07-21T03:31:52;9.10;;;5.53;;
6842;SDS011;3460;52.028;8.916;2022-07-21T03:34:19;7.73;;;5.63;;
6842;SDS011;3460;52.028;8.916;2022-07-21T03:36:47;9.97;;;5.50;;
6842;SDS011;3460;52.028;8.916;2022-07-21T03:39:13;8.37;;;5.47;;
6842;SDS011;3460;52.028;8.916;2022-07-21T03:41:40;6.30;;;5.70;;
6842;SDS011;3460;52.028;8.916;2022-07-21T03:44:06;6.40;;;5.40;;
6842;SDS011;3460;52.028;8.916;2022-07-21T03:46:33;6.97;;;5.50;;
6842;SDS011;3460;52.028;8.916;2022-07-21T03:48:59;5.80;;;5.20;;
6842;SDS011;3460;52.028;8.916;2022-07-21T03:51:26;6.77;;;5.60;;
6842;SDS011;3460;52.028;8.916;2022-07-21T03:53:54;7.10;;;5.90;;
6842;SDS011;3460;52.028;8.916;2022-07-21T03:56:21;6.90;;;5.73;;
6842;SDS011;3460;52.028;8.916;2022-07-21T03:58:47;7.03;;;5.70;;
6842;SDS011;3460;52.028;8.916;2022-07-21T04:01:14;9.13;;;5.90;;
6842;SDS011;3460;52.028;8.916;2022-07-21T04:03:40;7.27;;;5.83;;
6842;SDS011;3460;52.028;8.916;2022-07-21T04:06:07;7.47;;;6.10;;
6842;SDS011;3460;52.028;8.916;2022-07-21T04:08:35;8.13;;;6.30;;
6842;SDS011;3460;52.028;8.916;2022-07-21T04:11:04;7.87;;;6.20;;
6842;SDS011;3460;52.028;8.916;2022-07-21T04:13:31;7.27;;;6.33;;
6842;SDS011;3460;52.028;8.916;2022-07-21T04:15:57;9.87;;;6.80;;
6842;SDS011;3460;52.028;8.916;2022-07-21T04:18:24;9.27;;;7.67;;
6842;SDS011;3460;52.028;8.916;2022-07-21T04:20:51;8.73;;;7.67;;
6842;SDS011;3460;52.028;8.916;2022-07-21T04:23:17;7.27;;;6.57;;
6842;SDS011;3460;52.028;8.916;2022-07-21T04:25:44;10.53;;;6.80;;
6842;SDS011;3460;52.028;8.916;2022-07-21T04:28:12;6.77;;;6.07;;
6842;SDS011;3460;52.028;8.916;2022-07-21T04:30:38;7.27;;;6.50;;
6842;SDS011;3460;52.028;8.916;2022-07-21T04:33:05;8.83;;;7.10;;
6842;SDS011;3460;52.028;8.916;2022-07-21T04:35:32;8.90;;;7.00;;
6842;SDS011;3460;52.028;8.916;2022-07-21T04:37:58;6.00;;;5.40;;
6842;SDS011;3460;52.028;8.916;2022-07-21T04:40:25;7.13;;;6.33;;
6842;SDS011;3460;52.028;8.916;2022-07-21T04:42:52;5.43;;;4.90;;
6842;SDS011;3460;52.028;8.916;2022-07-21T04:45:20;5.30;;;4.77;;
6842;SDS011;3460;52.028;8.916;2022-07-21T04:47:47;6.90;;;5.10;;
6842;SDS011;3460;52.028;8.916;2022-07-21T04:50:16;7.23;;;5.20;;
6842;SDS011;3460;52.028;8.916;2022-07-21T04:52:44;5.30;;;4.47;;
6842;SDS011;3460;52.028;8.916;2022-07-21T04:55:12;6.13;;;5.53;;
6842;SDS011;3460;52.028;8.916;2022-07-21T04:57:39;6.10;;;5.53;;
6842;SDS011;3460;52.028;8.916;2022-07-21T05:00:08;5.50;;;5.00;;
6842;SDS011;3460;52.028;8.916;2022-07-21T05:02:38;5.43;;;4.33;;
6842;SDS011;3460;52.028;8.916;2022-07-21T05:05:05;5.10;;;4.20;;
6842;SDS011;3460;52.028;8.916;2022-07-21T05:07:33;5.97;;;4.17;;
6842;SDS011;3460;52.028;8.916;2022-07-21T05:10:02;5.30;;;3.30;;
6842;SDS011;3460;52.028;8.916;2022-07-21T05:12:30;6.27;;;4.10;;
6842;SDS011;3460;52.028;8.916;2022-07-21T05:14:56;6.60;;;4.00;;
6842;SDS011;3460;52.028;8.916;2022-07-21T05:17:23;6.93;;;4.00;;
6842;SDS011;3460;52.028;8.916;2022-07-21T05:19:51;6.77;;;4.00;;
6842;SDS011;3460;52.028;8.916;2022-07-21T05:22:17;10.13;;;3.90;;
6842;SDS011;3460;52.028;8.916;2022-07-21T05:24:44;5.17;;;3.40;;
6842;SDS011;3460;52.028;8.916;2022-07-21T05:27:11;8.07;;;3.87;;
6842;SDS011;3460;52.028;8.916;2022-07-21T05:29:37;4.33;;;3.30;;
6842;SDS011;3460;52.028;8.916;2022-07-21T05:32:04;6.93;;;3.97;;
6842;SDS011;3460;52.028;8.916;2022-07-21T05:34:32;4.93;;;3.80;;
6842;SDS011;3460;52.028;8.916;2022-07-21T05:37:00;7.03;;;3.90;;
6842;SDS011;3460;52.028;8.916;2022-07-21T05:39:26;5.43;;;3.63;;
6842;SDS011;3460;52.028;8.916;2022-07-21T05:41:54;5.53;;;3.97;;
6842;SDS011;3460;52.028;8.916;2022-07-21T05:44:20;8.27;;;3.83;;
6842;SDS011;3460;52.028;8.916;2022-07-21T05:46:47;4.10;;;3.70;;
6842;SDS011;3460;52.028;8.916;2022-07-21T05:49:13;5.10;;;3.83;;
6842;SDS011;3460;52.028;8.916;2022-07-21T05:51:40;5.00;;;4.10;;
6842;SDS011;3460;52.028;8.916;2022-07-21T05:54:08;4.80;;;4.30;;
6842;SDS011;3460;52.028;8.916;2022-07-21T05:56:34;4.73;;;3.93;;
6842;SDS011;3460;52.028;8.916;2022-07-21T05:59:01;4.33;;;3.93;;
6842;SDS011;3460;52.028;8.916;2022-07-21T06:01:28;5.30;;;4.80;;
6842;SDS011;3460;52.028;8.916;2022-07-21T06:03:54;6.93;;;4.80;;
6842;SDS011;3460;52.028;8.916;2022-07-21T06:06:21;5.50;;;5.00;;
6842;SDS011;3460;52.028;8.916;2022-07-21T06:08:48;6.03;;;4.70;;
6842;SDS011;3460;52.028;8.916;2022-07-21T06:11:17;7.07;;;4.43;;
6842;SDS011;3460;52.028;8.916;2022-07-21T06:13:45;7.00;;;5.27;;
6842;SDS011;3460;52.028;8.916;2022-07-21T06:16:12;7.07;;;6.37;;
6842;SDS011;3460;52.028;8.916;2022-07-21T06:18:39;7.50;;;6.70;;
6842;SDS011;3460;52.028;8.916;2022-07-21T06:21:06;8.97;;;7.57;;
6842;SDS011;3460;52.028;8.916;2022-07-21T06:23:32;8.00;;;7.20;;
6842;SDS011;3460;52.028;8.916;2022-07-21T06:25:59;10.20;;;7.90;;
6842;SDS011;3460;52.028;8.916;2022-07-21T06:28:27;10.20;;;7.90;;
6842;SDS011;3460;52.028;8.916;2022-07-21T06:30:53;10.50;;;8.13;;
6842;SDS011;3460;52.028;8.916;2022-07-21T06:33:21;9.97;;;8.83;;
6842;SDS011;3460;52.028;8.916;2022-07-21T06:35:47;8.87;;;8.07;;
6842;SDS011;3460;52.028;8.916;2022-07-21T06:38:14;9.90;;;8.67;;
6842;SDS011;3460;52.028;8.916;2022-07-21T06:40:41;10.67;;;8.00;;
6842;SDS011;3460;52.028;8.916;2022-07-21T06:43:07;8.30;;;7.27;;
6842;SDS011;3460;52.028;8.916;2022-07-21T06:45:35;9.13;;;7.80;;
6842;SDS011;3460;52.028;8.916;2022-07-21T06:48:02;11.93;;;9.20;;
6842;SDS011;3460;52.028;8.916;2022-07-21T06:50:30;12.20;;;10.30;;
6842;SDS011;3460;52.028;8.916;2022-07-21T06:52:57;12.60;;;11.10;;
6842;SDS011;3460;52.028;8.916;2022-07-21T06:55:24;16.73;;;13.97;;
6842;SDS011;3460;52.028;8.916;2022-07-21T06:57:51;16.47;;;14.50;;
6842;SDS011;3460;52.028;8.916;2022-07-21T07:00:18;15.93;;;13.53;;
6842;SDS011;3460;52.028;8.916;2022-07-21T07:02:46;20.73;;;14.83;;
6842;SDS011;3460;52.028;8.916;2022-07-21T07:05:13;17.00;;;15.20;;
6842;SDS011;3460;52.028;8.916;2022-07-21T07:07:40;20.07;;;15.70;;
6842;SDS011;3460;52.028;8.916;2022-07-21T07:10:08;16.67;;;15.07;;
6842;SDS011;3460;52.028;8.916;2022-07-21T07:12:35;15.37;;;13.77;;
6842;SDS011;3460;52.028;8.916;2022-07-21T07:15:02;15.10;;;13.47;;
6842;SDS011;3460;52.028;8.916;2022-07-21T07:17:29;14.20;;;12.70;;
6842;SDS011;3460;52.028;8.916;2022-07-21T07:19:57;13.30;;;11.95;;
6842;SDS011;3460;52.028;8.916;2022-07-21T07:22:24;13.47;;;12.13;;
6842;SDS011;3460;52.028;8.916;2022-07-21T07:24:51;10.95;;;9.82;;
6842;SDS011;3460;52.028;8.916;2022-07-21T07:27:17;10.77;;;9.67;;
6842;SDS011;3460;52.028;8.916;2022-07-21T07:29:44;11.43;;;9.90;;
6842;SDS011;3460;52.028;8.916;2022-07-21T07:32:11;12.73;;;9.73;;
6842;SDS011;3460;52.028;8.916;2022-07-21T07:34:37;9.60;;;8.63;;
6842;SDS011;3460;52.028;8.916;2022-07-21T07:37:05;9.10;;;8.27;;
6842;SDS011;3460;52.028;8.916;2022-07-21T07:39:32;8.90;;;8.00;;
6842;SDS011;3460;52.028;8.916;2022-07-21T07:42:00;9.40;;;8.40;;
6842;SDS011;3460;52.028;8.916;2022-07-21T07:44:27;9.10;;;8.20;;
6842;SDS011;3460;52.028;8.916;2022-07-21T07:46:53;10.15;;;7.97;;
6842;SDS011;3460;52.028;8.916;2022-07-21T07:49:20;8.77;;;7.85;;
6842;SDS011;3460;52.028;8.916;2022-07-21T07:51:46;8.88;;;8.07;;
6842;SDS011;3460;52.028;8.916;2022-07-21T07:54:15;8.95;;;8.15;;
6842;SDS011;3460;52.028;8.916;2022-07-21T07:56:41;11.83;;;8.17;;
6842;SDS011;3460;52.028;8.916;2022-07-21T07:59:08;9.70;;;8.70;;
6842;SDS011;3460;52.028;8.916;2022-07-21T08:01:34;9.37;;;8.47;;
6842;SDS011;3460;52.028;8.916;2022-07-21T08:04:01;8.93;;;8.02;;
6842;SDS011;3460;52.028;8.916;2022-07-21T08:06:28;8.30;;;7.50;;
6842;SDS011;3460;52.028;8.916;2022-07-21T08:08:54;9.00;;;8.10;;
6842;SDS011;3460;52.028;8.916;2022-07-21T08:11:22;8.10;;;7.40;;
6842;SDS011;3460;52.028;8.916;2022-07-21T08:13:49;8.57;;;7.72;;
6842;SDS011;3460;52.028;8.916;2022-07-21T08:16:15;11.15;;;8.38;;
6842;SDS011;3460;52.028;8.916;2022-07-21T08:18:42;8.95;;;7.75;;
6842;SDS011;3460;52.028;8.916;2022-07-21T08:21:09;8.32;;;7.53;;
6842;SDS011;3460;52.028;8.916;2022-07-21T08:23:36;10.27;;;8.02;;
6842;SDS011;3460;52.028;8.916;2022-07-21T08:26:03;8.90;;;7.55;;
6842;SDS011;3460;52.028;8.916;2022-07-21T08:28:32;9.02;;;7.35;;
6842;SDS011;3460;52.028;8.916;2022-07-21T08:30:59;8.70;;;7.80;;
6842;SDS011;3460;52.028;8.916;2022-07-21T08:33:25;8.70;;;7.80;;
6842;SDS011;3460;52.028;8.916;2022-07-21T08:35:52;9.55;;;8.60;;
6842;SDS011;3460;52.028;8.916;2022-07-21T08:38:19;8.52;;;7.63;;
6842;SDS011;3460;52.028;8.916;2022-07-21T08:40:46;10.77;;;7.97;;
6842;SDS011;3460;52.028;8.916;2022-07-21T08:43:13;8.63;;;7.05;;
6842;SDS011;3460;52.028;8.916;2022-07-21T08:45:41;8.20;;;7.40;;
6842;SDS011;3460;52.028;8.916;2022-07-21T08:48:08;8.33;;;7.50;;
6842;SDS011;3460;52.028;8.916;2022-07-21T08:50:36;8.77;;;7.97;;
6842;SDS011;3460;52.028;8.916;2022-07-21T08:53:04;9.48;;;7.40;;
6842;SDS011;3460;52.028;8.916;2022-07-21T08:55:31;9.00;;;7.30;;
6842;SDS011;3460;52.028;8.916;2022-07-21T08:57:59;9.27;;;8.25;;
6842;SDS011;3460;52.028;8.916;2022-07-21T09:00:28;9.93;;;7.28;;
6842;SDS011;3460;52.028;8.916;2022-07-21T09:03:09;9.63;;;7.18;;
6842;SDS011;3460;52.028;8.916;2022-07-21T09:05:37;7.97;;;6.90;;
6842;SDS011;3460;52.028;8.916;2022-07-21T09:08:04;9.57;;;6.70;;
6842;SDS011;3460;52.028;8.916;2022-07-21T09:10:31;7.97;;;7.03;;
6842;SDS011;3460;52.028;8.916;2022-07-21T09:12:59;7.22;;;6.53;;
6842;SDS011;3460;52.028;8.916;2022-07-21T09:15:28;9.00;;;6.85;;
6842;SDS011;3460;52.028;8.916;2022-07-21T09:18:03;7.30;;;6.20;;
6842;SDS011;3460;52.028;8.916;2022-07-21T09:20:33;6.95;;;6.25;;
6842;SDS011;3460;52.028;8.916;2022-07-21T09:23:01;8.05;;;6.82;;
6842;SDS011;3460;52.028;8.916;2022-07-21T09:25:32;7.78;;;6.43;;
6842;SDS011;3460;52.028;8.916;2022-07-21T09:28:06;10.20;;;6.65;;
6842;SDS011;3460;52.028;8.916;2022-07-21T09:30:46;6.97;;;6.28;;
6842;SDS011;3460;52.028;8.916;2022-07-21T09:33:21;6.85;;;6.15;;
6842;SDS011;3460;52.028;8.916;2022-07-21T09:35:55;8.80;;;6.70;;
6842;SDS011;3460;52.028;8.916;2022-07-21T09:38:24;8.48;;;5.70;;
6842;SDS011;3460;52.028;8.916;2022-07-21T09:40:51;6.65;;;5.95;;
6842;SDS011;3460;52.028;8.916;2022-07-21T09:46:11;6.38;;;5.78;;
6842;SDS011;3460;52.028;8.916;2022-07-21T09:48:40;6.80;;;5.72;;
6842;SDS011;3460;52.028;8.916;2022-07-21T09:51:23;8.35;;;5.68;;
6842;SDS011;3460;52.028;8.916;2022-07-21T09:53:53;7.65;;;5.85;;
6842;SDS011;3460;52.028;8.916;2022-07-21T09:56:21;6.75;;;5.90;;
6842;SDS011;3460;52.028;8.916;2022-07-21T09:58:49;6.70;;;5.95;;
6842;SDS011;3460;52.028;8.916;2022-07-21T10:01:18;5.78;;;5.20;;
6842;SDS011;3460;52.028;8.916;2022-07-21T10:03:45;6.78;;;6.10;;
6842;SDS011;3460;52.028;8.916;2022-07-21T10:06:14;6.50;;;5.90;;
6842;SDS011;3460;52.028;8.916;2022-07-21T10:08:43;7.15;;;5.78;;
6842;SDS011;3460;52.028;8.916;2022-07-21T10:11:10;7.93;;;6.22;;
6842;SDS011;3460;52.028;8.916;2022-07-21T10:13:37;6.40;;;5.50;;
6842;SDS011;3460;52.028;8.916;2022-07-21T10:16:05;6.20;;;5.30;;
6842;SDS011;3460;52.028;8.916;2022-07-21T10:18:35;7.90;;;5.63;;
6842;SDS011;3460;52.028;8.916;2022-07-21T10:21:08;7.35;;;5.90;;
6842;SDS011;3460;52.028;8.916;2022-07-21T10:23:41;8.10;;;5.65;;
6842;SDS011;3460;52.028;8.916;2022-07-21T10:26:10;6.85;;;5.90;;
6842;SDS011;3460;52.028;8.916;2022-07-21T10:28:37;7.47;;;6.78;;
6842;SDS011;3460;52.028;8.916;2022-07-21T10:31:12;7.68;;;6.43;;
6842;SDS011;3460;52.028;8.916;2022-07-21T10:36:43;6.75;;;6.15;;
6842;SDS011;3460;52.028;8.916;2022-07-21T10:39:19;8.73;;;6.13;;
6842;SDS011;3460;52.028;8.916;2022-07-21T10:41:48;7.85;;;6.68;;
6842;SDS011;3460;52.028;8.916;2022-07-21T10:47:12;7.82;;;6.95;;
6842;SDS011;3460;52.028;8.916;2022-07-21T10:49:42;7.50;;;6.75;;
6842;SDS011;3460;52.028;8.916;2022-07-21T10:55:36;6.93;;;6.25;;
6842;SDS011;3460;52.028;8.916;2022-07-21T10:58:10;6.90;;;6.20;;
6842;SDS011;3460;52.028;8.916;2022-07-21T11:00:41;8.35;;;6.78;;
6842;SDS011;3460;52.028;8.916;2022-07-21T11:03:13;7.45;;;6.72;;
6842;SDS011;3460;52.028;8.916;2022-07-21T11:08:41;7.30;;;5.97;;
6842;SDS011;3460;52.028;8.916;2022-07-21T11:11:11;8.00;;;7.20;;
6842;SDS011;3460;52.028;8.916;2022-07-21T11:13:58;8.15;;;7.35;;
6842;SDS011;3460;52.028;8.916;2022-07-21T11:19:34;7.85;;;6.45;;
6842;SDS011;3460;52.028;8.916;2022-07-21T11:22:04;7.75;;;7.05;;
6842;SDS011;3460;52.028;8.916;2022-07-21T11:24:33;6.15;;;5.55;;
6842;SDS011;3460;52.028;8.916;2022-07-21T11:27:03;6.70;;;5.13;;
6842;SDS011;3460;52.028;8.916;2022-07-21T11:29:32;6.03;;;5.28;;
6842;SDS011;3460;52.028;8.916;2022-07-21T11:31:59;5.65;;;4.90;;
6842;SDS011;3460;52.028;8.916;2022-07-21T11:34:36;4.93;;;4.45;;
6842;SDS011;3460;52.028;8.916;2022-07-21T11:37:04;4.82;;;4.32;;
6842;SDS011;3460;52.028;8.916;2022-07-21T11:39:31;4.97;;;4.57;;
6842;SDS011;3460;52.028;8.916;2022-07-21T11:42:02;5.07;;;4.57;;
6842;SDS011;3460;52.028;8.916;2022-07-21T11:44:30;7.32;;;4.65;;
6842;SDS011;3460;52.028;8.916;2022-07-21T11:46:57;6.93;;;5.03;;
6842;SDS011;3460;52.028;8.916;2022-07-21T11:49:25;8.45;;;4.78;;
6842;SDS011;3460;52.028;8.916;2022-07-21T11:51:53;6.93;;;4.65;;
6842;SDS011;3460;52.028;8.916;2022-07-21T11:54:26;6.13;;;4.85;;
6842;SDS011;3460;52.028;8.916;2022-07-21T11:56:56;7.18;;;4.95;;
6842;SDS011;3460;52.028;8.916;2022-07-21T11:59:25;6.70;;;4.78;;
6842;SDS011;3460;52.028;8.916;2022-07-21T12:01:54;7.40;;;4.55;;
6842;SDS011;3460;52.028;8.916;2022-07-21T12:04:26;5.10;;;4.60;;
6842;SDS011;3460;52.028;8.916;2022-07-21T12:06:53;5.18;;;4.68;;
6842;SDS011;3460;52.028;8.916;2022-07-21T12:09:20;4.88;;;4.25;;
6842;SDS011;3460;52.028;8.916;2022-07-21T12:11:47;4.85;;;4.45;;
6842;SDS011;3460;52.028;8.916;2022-07-21T12:14:14;5.45;;;4.93;;
6842;SDS011;3460;52.028;8.916;2022-07-21T12:16:48;5.53;;;5.03;;
6842;SDS011;3460;52.028;8.916;2022-07-21T12:19:15;5.45;;;4.90;;
6842;SDS011;3460;52.028;8.916;2022-07-21T12:21:44;4.93;;;4.50;;
6842;SDS011;3460;52.028;8.916;2022-07-21T12:24:12;4.75;;;4.35;;
6842;SDS011;3460;52.028;8.916;2022-07-21T12:26:38;4.03;;;3.63;;
6842;SDS011;3460;52.028;8.916;2022-07-21T12:29:05;5.78;;;4.50;;
6842;SDS011;3460;52.028;8.916;2022-07-21T12:31:33;4.57;;;3.85;;
6842;SDS011;3460;52.028;8.916;2022-07-21T12:34:11;4.60;;;4.20;;
6842;SDS011;3460;52.028;8.916;2022-07-21T12:36:38;4.70;;;4.30;;
6842;SDS011;3460;52.028;8.916;2022-07-21T12:39:19;4.32;;;3.80;;
6842;SDS011;3460;52.028;8.916;2022-07-21T12:42:05;4.63;;;3.78;;
6842;SDS011;3460;52.028;8.916;2022-07-21T12:44:33;6.28;;;4.10;;
6842;SDS011;3460;52.028;8.916;2022-07-21T12:47:12;6.30;;;4.05;;
6842;SDS011;3460;52.028;8.916;2022-07-21T12:49:54;4.40;;;4.00;;
6842;SDS011;3460;52.028;8.916;2022-07-21T12:52:22;4.88;;;4.07;;
6842;SDS011;3460;52.028;8.916;2022-07-21T12:54:49;5.22;;;4.22;;
6842;SDS011;3460;52.028;8.916;2022-07-21T12:57:16;5.28;;;4.65;;
6842;SDS011;3460;52.028;8.916;2022-07-21T12:59:42;5.68;;;5.13;;
6842;SDS011;3460;52.028;8.916;2022-07-21T13:02:09;6.80;;;5.20;;
6842;SDS011;3460;52.028;8.916;2022-07-21T13:04:36;7.53;;;5.53;;
6842;SDS011;3460;52.028;8.916;2022-07-21T13:07:04;5.93;;;4.80;;
6842;SDS011;3460;52.028;8.916;2022-07-21T13:09:30;4.72;;;4.25;;
6842;SDS011;3460;52.028;8.916;2022-07-21T13:11:57;6.95;;;4.68;;
6842;SDS011;3460;52.028;8.916;2022-07-21T13:14:24;5.22;;;4.72;;
6842;SDS011;3460;52.028;8.916;2022-07-21T13:16:50;12.33;;;5.07;;
6842;SDS011;3460;52.028;8.916;2022-07-21T13:19:18;8.98;;;5.85;;
6842;SDS011;3460;52.028;8.916;2022-07-21T13:21:44;6.63;;;5.23;;
6842;SDS011;3460;52.028;8.916;2022-07-21T13:24:12;7.47;;;5.33;;
6842;SDS011;3460;52.028;8.916;2022-07-21T13:26:39;11.90;;;5.93;;
6842;SDS011;3460;52.028;8.916;2022-07-21T13:29:05;4.37;;;3.70;;
6842;SDS011;3460;52.028;8.916;2022-07-21T13:31:33;5.40;;;4.30;;
6842;SDS011;3460;52.028;8.916;2022-07-21T13:34:01;9.40;;;5.33;;
6842;SDS011;3460;52.028;8.916;2022-07-21T13:36:28;8.07;;;4.90;;
6842;SDS011;3460;52.028;8.916;2022-07-21T13:38:55;11.73;;;5.20;;
6842;SDS011;3460;52.028;8.916;2022-07-21T13:41:24;7.27;;;5.00;;
6842;SDS011;3460;52.028;8.916;2022-07-21T13:43:51;7.47;;;5.30;;
6842;SDS011;3460;52.028;8.916;2022-07-21T13:46:18;8.63;;;6.70;;
6842;SDS011;3460;52.028;8.916;2022-07-21T13:48:45;7.07;;;5.90;;
6842;SDS011;3460;52.028;8.916;2022-07-21T13:51:11;6.20;;;5.10;;
6842;SDS011;3460;52.028;8.916;2022-07-21T13:53:39;7.53;;;4.90;;
6842;SDS011;3460;52.028;8.916;2022-07-21T13:56:07;5.87;;;5.17;;
6842;SDS011;3460;52.028;8.916;2022-07-21T13:58:35;6.30;;;5.70;;
6842;SDS011;3460;52.028;8.916;2022-07-21T14:01:02;8.87;;;5.23;;
6842;SDS011;3460;52.028;8.916;2022-07-21T14:03:29;6.80;;;5.60;;
6842;SDS011;3460;52.028;8.916;2022-07-21T14:05:56;6.90;;;6.20;;
6842;SDS011;3460;52.028;8.916;2022-07-21T14:08:23;6.83;;;6.17;;
6842;SDS011;3460;52.028;8.916;2022-07-21T14:10:50;6.60;;;6.00;;
6842;SDS011;3460;52.028;8.916;2022-07-21T14:13:16;8.03;;;6.73;;
6842;SDS011;3460;52.028;8.916;2022-07-21T14:15:45;8.17;;;6.67;;
6842;SDS011;3460;52.028;8.916;2022-07-21T14:18:11;8.33;;;7.53;;
6842;SDS011;3460;52.028;8.916;2022-07-21T14:20:38;8.63;;;7.67;;
6842;SDS011;3460;52.028;8.916;2022-07-21T14:23:05;10.02;;;8.07;;
6842;SDS011;3460;52.028;8.916;2022-07-21T14:25:32;13.70;;;8.60;;
6842;SDS011;3460;52.028;8.916;2022-07-21T14:27:58;8.25;;;7.45;;
6842;SDS011;3460;52.028;8.916;2022-07-21T14:30:26;10.48;;;8.43;;
6842;SDS011;3460;52.028;8.916;2022-07-21T14:32:55;8.57;;;7.07;;
6842;SDS011;3460;52.028;8.916;2022-07-21T14:35:22;8.65;;;7.38;;
6842;SDS011;3460;52.028;8.916;2022-07-21T14:37:50;9.00;;;7.30;;
6842;SDS011;3460;52.028;8.916;2022-07-21T14:40:17;11.88;;;8.48;;
6842;SDS011;3460;52.028;8.916;2022-07-21T14:42:44;8.03;;;7.20;;
6842;SDS011;3460;52.028;8.916;2022-07-21T14:45:12;9.82;;;7.80;;
6842;SDS011;3460;52.028;8.916;2022-07-21T14:47:40;9.20;;;7.30;;
6842;SDS011;3460;52.028;8.916;2022-07-21T14:50:08;10.57;;;7.85;;
6842;SDS011;3460;52.028;8.916;2022-07-21T14:52:34;8.73;;;7.70;;
6842;SDS011;3460;52.028;8.916;2022-07-21T14:55:01;9.40;;;8.27;;
6842;SDS011;3460;52.028;8.916;2022-07-21T14:57:28;8.63;;;7.82;;
6842;SDS011;3460;52.028;8.916;2022-07-21T14:59:55;7.82;;;7.03;;
6842;SDS011;3460;52.028;8.916;2022-07-21T15:02:22;7.00;;;6.40;;
6842;SDS011;3460;52.028;8.916;2022-07-21T15:04:49;8.27;;;7.47;;
6842;SDS011;3460;52.028;8.916;2022-07-21T15:07:17;8.02;;;7.22;;
6842;SDS011;3460;52.028;8.916;2022-07-21T15:09:44;7.13;;;6.43;;
6842;SDS011;3460;52.028;8.916;2022-07-21T15:12:10;7.55;;;6.75;;
6842;SDS011;3460;52.028;8.916;2022-07-21T15:14:37;7.00;;;6.13;;
6842;SDS011;3460;52.028;8.916;2022-07-21T15:17:04;6.57;;;5.95;;
6842;SDS011;3460;52.028;8.916;2022-07-21T15:19:31;6.72;;;6.10;;
6842;SDS011;3460;52.028;8.916;2022-07-21T15:21:58;6.35;;;5.72;;
6842;SDS011;3460;52.028;8.916;2022-07-21T15:24:26;6.05;;;5.45;;
6842;SDS011;3460;52.028;8.916;2022-07-21T15:26:54;6.28;;;5.53;;
6842;SDS011;3460;52.028;8.916;2022-07-21T15:29:20;5.47;;;4.97;;
6842;SDS011;3460;52.028;8.916;2022-07-21T15:31:47;5.93;;;4.65;;
6842;SDS011;3460;52.028;8.916;2022-07-21T15:34:13;5.63;;;4.47;;
6842;SDS011;3460;52.028;8.916;2022-07-21T15:36:40;5.00;;;4.53;;
6842;SDS011;3460;52.028;8.916;2022-07-21T15:39:07;4.53;;;4.07;;
6842;SDS011;3460;52.028;8.916;2022-07-21T15:41:35;4.55;;;4.10;;
6842;SDS011;3460;52.028;8.916;2022-07-21T15:44:03;4.20;;;3.80;;
6842;SDS011;3460;52.028;8.916;2022-07-21T15:46:30;4.43;;;3.15;;
6842;SDS011;3460;52.028;8.916;2022-07-21T15:48:57;1.80;;;1.70;;